Time;durP1;ratioP1;P1;durP2;ratioP2;P2;SDS_P1;SDS_P2;PMS_P1;PMS_P2;Temp;Humidity;BMP_temperature;BMP_pressure;BME280_temperature;BME280_humidity;BME280_pressure;Samples;Min_cycle;Max_cycle;Signal;HPM_P1;HPM_P2
2023/05/14 00:01:46;;;;;;;14.43;7.30;;;13.30;99.90;;;;;;4972286;28;20384;-55
2023/05/14 00:04:12;;;;;;;15.30;7.73;;;13.20;99.90;;;;;;4972146;28;20786;-55
2023/05/14 00:06:38;;;;;;;12.88;6.78;;;13.10;99.90;;;;;;4972023;28;20747;-55
2023/05/14 00:09:05;;;;;;;14.07;7.10;;;13.10;99.90;;;;;;4972102;28;20475;-55
2023/05/14 00:11:30;;;;;;;16.13;7.82;;;13.00;99.90;;;;;;4971516;28;20450;-55
2023/05/14 00:13:56;;;;;;;13.07;7.10;;;13.00;99.90;;;;;;4971759;28;20794;-55
2023/05/14 00:16:21;;;;;;;13.38;6.68;;;13.00;99.90;;;;;;4970976;28;20404;-55
2023/05/14 00:18:47;;;;;;;15.50;7.00;;;12.90;99.90;;;;;;4971354;28;20462;-55
2023/05/14 00:21:12;;;;;;;15.97;7.63;;;12.90;99.90;;;;;;4971201;28;20399;-55
2023/05/14 00:23:39;;;;;;;15.60;7.22;;;12.80;99.90;;;;;;4970695;28;20408;-55
2023/05/14 00:26:04;;;;;;;14.77;7.30;;;12.70;99.90;;;;;;4971728;28;20439;-54
2023/05/14 00:28:30;;;;;;;13.77;7.20;;;12.60;99.90;;;;;;4970801;28;20451;-55
2023/05/14 00:30:56;;;;;;;13.67;7.33;;;12.60;99.90;;;;;;4971675;28;20479;-55
2023/05/14 00:33:21;;;;;;;13.32;7.22;;;12.50;1.00;;;;;;4970998;28;20405;-55
2023/05/14 00:35:48;;;;;;;13.83;6.87;;;12.50;1.00;;;;;;4971221;28;20392;-55
2023/05/14 00:38:18;;;;;;;16.23;7.50;;;12.60;1.00;;;;;;4971605;28;20419;-55
2023/05/14 00:40:48;;;;;;;15.00;7.63;;;12.40;1.00;;;;;;4970444;28;20412;-55
2023/05/14 00:43:14;;;;;;;14.95;7.18;;;12.40;1.00;;;;;;4968882;28;20801;-55
2023/05/14 00:45:40;;;;;;;13.80;7.13;;;12.30;1.00;;;;;;4970559;28;20543;-55
2023/05/14 00:48:06;;;;;;;14.95;7.22;;;12.40;1.00;;;;;;4970760;28;20433;-55
2023/05/14 00:50:33;;;;;;;13.60;6.83;;;12.40;1.00;;;;;;4967708;28;20428;-54
2023/05/14 00:52:59;;;;;;;14.43;7.28;;;12.40;1.00;;;;;;4971265;28;20532;-55
2023/05/14 00:55:25;;;;;;;12.85;6.72;;;12.40;1.00;;;;;;4970227;28;20404;-55
2023/05/14 00:57:53;;;;;;;13.10;7.00;;;12.30;1.00;;;;;;4971210;28;20475;-55
2023/05/14 01:00:19;;;;;;;16.05;7.53;;;12.20;1.00;;;;;;4970484;28;21032;-54
2023/05/14 01:02:44;;;;;;;12.57;6.90;;;12.20;1.00;;;;;;4970467;28;20468;-55
2023/05/14 01:05:10;;;;;;;14.45;7.25;;;12.20;1.00;;;;;;4970890;28;20407;-54
2023/05/14 01:07:52;;;;;;;13.50;7.40;;;12.20;1.00;;;;;;4970472;28;20878;-55
2023/05/14 01:10:33;;;;;;;11.77;6.70;;;12.10;1.00;;;;;;4968457;28;20434;-55
2023/05/14 01:13:03;;;;;;;15.43;6.93;;;12.10;1.00;;;;;;4970269;28;20747;-54
2023/05/14 01:15:34;;;;;;;11.65;6.43;;;11.90;1.00;;;;;;4969656;28;20499;-55
2023/05/14 01:18:06;;;;;;;13.82;7.22;;;11.90;1.00;;;;;;4970905;28;20416;-55
2023/05/14 01:20:32;;;;;;;14.35;7.32;;;11.90;1.00;;;;;;4970234;28;20393;-55
2023/05/14 01:22:58;;;;;;;12.05;6.60;;;11.90;1.00;;;;;;4970510;28;20885;-55
2023/05/14 01:25:23;;;;;;;12.80;6.97;;;11.90;1.00;;;;;;4970371;28;20560;-55
2023/05/14 01:28:02;;;;;;;13.40;7.32;;;11.80;1.00;;;;;;4970227;28;20416;-55
2023/05/14 01:30:33;;;;;;;13.68;7.13;;;11.70;1.00;;;;;;4969475;28;20818;-55
2023/05/14 01:33:05;;;;;;;13.65;7.10;;;11.70;1.00;;;;;;4970203;28;20874;-55
2023/05/14 01:35:31;;;;;;;14.27;7.40;;;11.60;1.00;;;;;;4969323;28;20408;-55
2023/05/14 01:38:00;;;;;;;16.48;6.60;;;11.50;1.00;;;;;;4970785;28;20392;-54
2023/05/14 01:40:26;;;;;;;13.45;7.15;;;11.50;1.00;;;;;;4969774;28;20411;-54
2023/05/14 01:42:53;;;;;;;13.15;6.93;;;11.40;1.00;;;;;;4967655;28;20777;-54
2023/05/14 01:45:20;;;;;;;15.82;6.90;;;11.30;1.00;;;;;;4970108;28;20396;-54
2023/05/14 01:47:45;;;;;;;14.73;7.40;;;11.70;1.00;;;;;;4969500;28;20408;-55
2023/05/14 01:50:11;;;;;;;13.80;7.20;;;11.30;1.00;;;;;;4969485;28;20419;-54
2023/05/14 01:52:37;;;;;;;15.30;7.28;;;11.30;1.00;;;;;;4969507;28;20415;-55
2023/05/14 01:55:03;;;;;;;16.40;6.83;;;11.30;1.00;;;;;;4970266;28;20396;-55
2023/05/14 01:57:29;;;;;;;13.48;6.85;;;11.20;1.00;;;;;;4969175;28;20431;-55
2023/05/14 01:59:55;;;;;;;13.57;6.97;;;11.20;1.00;;;;;;4970065;28;20454;-54
2023/05/14 02:02:21;;;;;;;14.85;6.50;;;11.20;1.00;;;;;;4969899;28;20461;-55
2023/05/14 02:04:46;;;;;;;13.93;6.83;;;12.60;1.00;;;;;;4970361;28;20401;-54
2023/05/14 02:07:13;;;;;;;13.30;7.03;;;11.20;1.00;;;;;;4967366;28;20754;-54
2023/05/14 02:09:39;;;;;;;12.70;6.30;;;11.20;1.00;;;;;;4967409;28;20456;-55
2023/05/14 02:12:06;;;;;;;13.70;7.35;;;11.30;1.00;;;;;;4970188;28;20416;-55
2023/05/14 02:14:32;;;;;;;12.82;6.88;;;11.20;1.00;;;;;;4969265;28;20487;-55
2023/05/14 02:16:58;;;;;;;16.50;7.05;;;11.20;1.00;;;;;;4969752;28;20484;-54
2023/05/14 02:19:23;;;;;;;16.30;7.47;;;11.10;1.00;;;;;;4969496;28;20408;-56
2023/05/14 02:21:49;;;;;;;16.03;7.50;;;11.10;1.00;;;;;;4969500;28;20407;-54
2023/05/14 02:24:14;;;;;;;13.30;6.80;;;11.10;1.00;;;;;;4951759;28;20411;-54
2023/05/14 02:26:41;;;;;;;13.37;7.57;;;11.20;1.00;;;;;;4969303;28;20496;-54
2023/05/14 02:29:07;;;;;;;14.90;6.93;;;11.20;1.00;;;;;;4952469;28;20793;-54
2023/05/14 02:31:32;;;;;;;14.38;7.15;;;11.20;1.00;;;;;;4966207;28;20416;-55
2023/05/14 02:33:59;;;;;;;16.07;7.33;;;11.10;1.00;;;;;;4969870;28;20392;-55
2023/05/14 02:36:25;;;;;;;12.98;6.95;;;11.20;1.00;;;;;;4968990;28;20536;-54
2023/05/14 02:38:50;;;;;;;13.10;6.80;;;11.00;1.00;;;;;;4969305;28;20436;-55
2023/05/14 02:41:16;;;;;;;12.30;6.53;;;10.90;1.00;;;;;;4969326;28;20762;-55
2023/05/14 02:43:42;;;;;;;13.00;7.07;;;11.00;1.00;;;;;;4968482;28;20411;-55
2023/05/14 02:46:07;;;;;;;13.50;6.90;;;11.40;1.00;;;;;;4973120;28;20799;-55
2023/05/14 02:48:33;;;;;;;13.97;6.97;;;10.90;1.00;;;;;;4972545;28;20400;-55
2023/05/14 02:50:59;;;;;;;15.73;7.07;;;11.00;1.00;;;;;;4973407;28;20767;-55
2023/05/14 02:53:24;;;;;;;14.23;6.78;;;11.10;1.00;;;;;;4972444;28;20392;-55
2023/05/14 02:55:50;;;;;;;11.90;5.97;;;11.10;1.00;;;;;;4972894;28;20404;-55
2023/05/14 02:58:15;;;;;;;13.18;6.45;;;11.20;1.00;;;;;;4973466;28;20407;-55
2023/05/14 03:00:41;;;;;;;12.10;6.53;;;11.30;1.00;;;;;;4972656;28;20861;-54
2023/05/14 03:03:07;;;;;;;14.65;6.38;;;11.30;1.00;;;;;;4973416;28;20392;-54
2023/05/14 03:05:32;;;;;;;14.80;6.40;;;11.30;1.00;;;;;;4972362;28;20728;-55
2023/05/14 03:07:58;;;;;;;13.40;6.80;;;11.30;1.00;;;;;;4972612;28;20422;-55
2023/05/14 03:10:23;;;;;;;12.63;6.90;;;11.30;1.00;;;;;;4972416;28;20427;-55
2023/05/14 03:12:49;;;;;;;12.10;6.80;;;11.40;1.00;;;;;;4972339;28;20412;-54
2023/05/14 03:15:14;;;;;;;13.10;6.60;;;11.50;1.00;;;;;;4972548;28;20961;-54
2023/05/14 03:17:40;;;;;;;13.75;6.43;;;11.60;1.00;;;;;;4972363;28;20478;-54
2023/05/14 03:20:06;;;;;;;13.00;6.13;;;11.60;1.00;;;;;;4972643;28;20458;-54
2023/05/14 03:22:32;;;;;;;14.65;6.75;;;11.60;1.00;;;;;;4971872;28;20413;-55
2023/05/14 03:25:00;;;;;;;12.00;6.50;;;11.60;1.00;;;;;;4972742;28;20492;-54
2023/05/14 03:27:25;;;;;;;12.38;6.55;;;11.60;1.00;;;;;;4971747;28;20416;-55
2023/05/14 03:29:51;;;;;;;11.83;6.00;;;11.60;1.00;;;;;;4972542;28;20503;-55
2023/05/14 03:32:17;;;;;;;12.47;6.60;;;11.60;1.00;;;;;;4972314;28;20440;-55
2023/05/14 03:34:43;;;;;;;12.93;6.43;;;11.60;1.00;;;;;;4971509;28;21014;-55
2023/05/14 03:37:09;;;;;;;12.13;6.18;;;11.70;1.00;;;;;;4972798;28;20423;-55
2023/05/14 03:39:35;;;;;;;12.40;6.22;;;11.60;1.00;;;;;;4972390;28;20852;-54
2023/05/14 03:42:00;;;;;;;11.27;5.60;;;11.70;1.00;;;;;;4972807;28;20396;-55
2023/05/14 03:44:26;;;;;;;12.10;5.93;;;11.70;1.00;;;;;;4972105;28;20462;-55
2023/05/14 03:46:52;;;;;;;13.40;6.20;;;11.70;1.00;;;;;;4972389;28;20419;-55
2023/05/14 03:49:17;;;;;;;11.55;6.22;;;11.70;1.00;;;;;;4972339;28;20913;-54
2023/05/14 03:51:43;;;;;;;12.60;6.27;;;11.70;1.00;;;;;;4972255;28;20860;-54
2023/05/14 03:54:08;;;;;;;11.32;5.28;;;11.60;1.00;;;;;;4972257;28;20483;-54
2023/05/14 03:56:34;;;;;;;11.10;5.60;;;11.60;1.00;;;;;;4971254;28;20440;-54
2023/05/14 03:59:01;;;;;;;11.83;5.80;;;11.60;1.00;;;;;;4972937;28;20420;-54
2023/05/14 04:01:26;;;;;;;12.48;6.05;;;11.70;1.00;;;;;;4971371;28;20416;-55
2023/05/14 04:03:52;;;;;;;11.90;6.00;;;11.70;1.00;;;;;;4972387;28;20439;-55
2023/05/14 04:06:18;;;;;;;13.53;5.87;;;11.70;1.00;;;;;;4972539;28;20805;-54
2023/05/14 04:08:43;;;;;;;12.50;6.90;;;11.80;1.00;;;;;;4971554;28;20965;-55
2023/05/14 04:11:09;;;;;;;11.38;5.47;;;11.70;1.00;;;;;;4972079;28;20400;-55
2023/05/14 04:13:34;;;;;;;12.40;6.38;;;11.80;1.00;;;;;;4972175;28;20953;-55
2023/05/14 04:16:00;;;;;;;12.63;5.90;;;11.90;1.00;;;;;;4971938;28;20456;-54
2023/05/14 04:18:26;;;;;;;11.38;5.53;;;11.90;1.00;;;;;;4971553;28;20399;-55
2023/05/14 04:20:51;;;;;;;12.43;6.30;;;11.90;1.00;;;;;;4971989;28;20454;-55
2023/05/14 04:23:17;;;;;;;11.67;5.60;;;12.00;1.00;;;;;;4971524;28;20490;-54
2023/05/14 04:25:42;;;;;;;12.25;6.35;;;12.00;1.00;;;;;;4971470;28;20790;-55
2023/05/14 04:28:08;;;;;;;11.55;5.70;;;12.00;1.00;;;;;;4972267;28;20894;-54
2023/05/14 04:30:33;;;;;;;10.50;5.10;;;12.00;1.00;;;;;;4971469;28;20466;-54
2023/05/14 04:32:59;;;;;;;10.90;5.60;;;12.00;1.00;;;;;;4971698;28;20479;-54
2023/05/14 04:35:25;;;;;;;12.57;5.20;;;11.90;1.00;;;;;;4972035;28;20399;-55
2023/05/14 04:37:50;;;;;;;12.30;6.00;;;11.90;1.00;;;;;;4970669;28;20456;-55
2023/05/14 04:40:16;;;;;;;14.23;5.57;;;12.00;1.00;;;;;;4971475;28;20731;-55
2023/05/14 04:42:42;;;;;;;12.30;5.90;;;11.90;1.00;;;;;;4971664;28;20384;-55
2023/05/14 04:45:08;;;;;;;13.95;6.28;;;11.90;1.00;;;;;;4971059;28;20451;-54
2023/05/14 04:47:34;;;;;;;44.75;29.02;;;11.90;1.00;;;;;;4968453;28;20408;-55
2023/05/14 04:50:00;;;;;;;15.25;8.98;;;12.10;1.00;;;;;;4971569;28;20447;-54
2023/05/14 04:52:26;;;;;;;11.40;5.23;;;12.20;99.90;;;;;;4970775;28;20491;-55
2023/05/14 04:54:52;;;;;;;12.02;6.00;;;12.10;99.90;;;;;;4970764;28;20392;-55
2023/05/14 04:57:17;;;;;;;12.00;6.10;;;12.20;99.90;;;;;;4970614;28;20400;-55
2023/05/14 04:59:43;;;;;;;10.20;5.53;;;12.20;99.90;;;;;;4970472;28;20412;-54
2023/05/14 05:02:08;;;;;;;11.23;5.65;;;12.10;99.90;;;;;;4971075;28;20441;-54
2023/05/14 05:04:34;;;;;;;11.00;5.23;;;12.30;99.90;;;;;;4970621;28;20396;-54
2023/05/14 05:07:00;;;;;;;11.80;5.90;;;12.20;99.90;;;;;;4970351;28;20543;-54
2023/05/14 05:09:25;;;;;;;11.10;5.30;;;12.10;99.90;;;;;;4970537;28;20432;-55
2023/05/14 05:11:51;;;;;;;11.57;5.87;;;12.10;99.90;;;;;;4971007;28;20404;-54
2023/05/14 05:14:16;;;;;;;13.25;7.35;;;12.00;99.90;;;;;;4970640;28;20400;-54
2023/05/14 05:16:42;;;;;;;11.00;5.63;;;12.10;99.90;;;;;;4970323;28;20888;-54
2023/05/14 05:19:07;;;;;;;12.40;6.30;;;12.20;99.90;;;;;;4970906;28;20404;-54
2023/05/14 05:21:34;;;;;;;14.10;5.45;;;12.30;99.90;;;;;;4970368;28;20404;-54
2023/05/14 05:23:59;;;;;;;11.30;5.50;;;12.30;99.90;;;;;;4971346;28;20414;-54
2023/05/14 05:26:26;;;;;;;11.40;5.65;;;12.20;99.90;;;;;;4970325;28;20747;-55
2023/05/14 05:28:51;;;;;;;12.23;5.10;;;12.30;99.90;;;;;;4969997;28;20396;-54
2023/05/14 05:31:17;;;;;;;14.80;5.90;;;12.20;99.90;;;;;;4971007;28;20411;-54
2023/05/14 05:33:43;;;;;;;10.85;5.03;;;12.30;99.90;;;;;;4970158;28;20404;-54
2023/05/14 05:36:08;;;;;;;11.32;6.00;;;12.30;99.90;;;;;;4971454;28;20483;-54
2023/05/14 05:38:34;;;;;;;9.90;5.22;;;12.40;99.90;;;;;;4964503;28;20467;-54
2023/05/14 05:41:00;;;;;;;12.40;5.93;;;12.60;99.90;;;;;;4967779;28;20956;-54
2023/05/14 05:43:27;;;;;;;10.63;5.18;;;12.60;99.90;;;;;;4970995;28;20405;-55
2023/05/14 05:45:53;;;;;;;12.00;5.68;;;12.60;99.90;;;;;;4970934;28;20384;-55
2023/05/14 05:48:18;;;;;;;13.80;5.40;;;12.80;90.70;;;;;;4971487;28;20794;-55
2023/05/14 05:50:47;;;;;;;10.47;5.10;;;12.70;1.00;;;;;;4969682;28;20438;-54
2023/05/14 05:53:15;;;;;;;11.65;5.57;;;12.70;21.40;;;;;;4971124;28;20536;-54
2023/05/14 05:55:41;;;;;;;12.85;5.05;;;12.80;1.00;;;;;;4968158;28;20471;-55
2023/05/14 05:58:06;;;;;;;11.97;5.30;;;12.80;1.00;;;;;;4970613;28;20794;-54
2023/05/14 06:00:32;;;;;;;12.05;5.32;;;12.50;1.00;;;;;;4967921;28;20471;-54
2023/05/14 06:02:57;;;;;;;13.63;5.82;;;12.50;99.90;;;;;;4970103;28;20546;-54
2023/05/14 06:05:23;;;;;;;12.40;6.30;;;12.60;99.90;;;;;;4965055;28;20700;-55
2023/05/14 06:07:49;;;;;;;13.77;5.85;;;12.70;99.90;;;;;;4966226;28;20862;-54
2023/05/14 06:10:14;;;;;;;12.80;5.68;;;12.80;99.90;;;;;;4963197;28;20565;-55
2023/05/14 06:12:40;;;;;;;15.47;6.40;;;13.00;1.00;;;;;;4966097;28;20504;-57
2023/05/14 06:15:06;;;;;;;12.32;6.05;;;13.10;1.00;;;;;;4969791;28;20407;-57
2023/05/14 06:17:33;;;;;;;11.25;5.43;;;13.10;1.00;;;;;;4968913;28;20388;-57
2023/05/14 06:19:59;;;;;;;11.57;5.28;;;13.20;99.90;;;;;;4972458;28;20499;-57
2023/05/14 06:22:24;;;;;;;12.43;5.95;;;13.20;99.90;;;;;;4972248;28;20380;-57
2023/05/14 06:24:50;;;;;;;13.67;6.40;;;13.30;99.90;;;;;;4970313;28;20420;-57
2023/05/14 06:27:15;;;;;;;11.90;5.33;;;13.50;99.90;;;;;;4974331;28;20412;-57
2023/05/14 06:29:41;;;;;;;11.60;5.82;;;13.50;1.00;;;;;;4972721;28;20427;-57
2023/05/14 06:32:07;;;;;;;10.27;5.50;;;13.50;99.90;;;;;;4972666;28;20491;-57
2023/05/14 06:34:33;;;;;;;12.20;5.50;;;13.50;99.90;;;;;;4973205;28;20395;-57
2023/05/14 06:36:59;;;;;;;12.40;6.20;;;13.30;1.00;;;;;;4973635;28;20502;-58
2023/05/14 06:39:24;;;;;;;13.80;8.27;;;13.30;82.00;;;;;;4971706;28;20417;-57
2023/05/14 06:41:50;;;;;;;11.60;5.70;;;13.50;46.40;;;;;;4973243;28;20476;-57
2023/05/14 06:44:18;;;;;;;13.00;6.20;;;13.80;25.80;;;;;;4973795;28;20922;-57
2023/05/14 06:46:43;;;;;;;11.95;5.78;;;14.30;99.90;;;;;;4971532;28;20404;-58
2023/05/14 06:49:09;;;;;;;11.90;5.40;;;14.60;99.90;;;;;;4974154;28;20770;-57
2023/05/14 06:51:35;;;;;;;12.50;6.07;;;14.90;99.90;;;;;;4972849;28;20420;-56
2023/05/14 06:54:00;;;;;;;13.10;5.50;;;15.00;99.90;;;;;;4973854;28;20775;-56
2023/05/14 06:56:26;;;;;;;11.90;5.93;;;15.30;99.90;;;;;;4973859;28;20471;-56
2023/05/14 06:58:52;;;;;;;12.23;5.45;;;15.70;99.90;;;;;;4972879;28;20408;-58
2023/05/14 07:01:17;;;;;;;12.33;5.70;;;16.10;1.00;;;;;;4973973;28;20396;-58
2023/05/14 07:03:43;;;;;;;12.37;5.77;;;16.40;1.00;;;;;;4967378;28;20502;-58
2023/05/14 07:06:08;;;;;;;13.00;6.00;;;16.60;99.90;;;;;;4973868;28;20420;-58
2023/05/14 07:08:34;;;;;;;11.55;5.82;;;16.30;99.90;;;;;;4973456;28;20862;-58
2023/05/14 07:11:00;;;;;;;14.13;5.97;;;15.90;99.90;;;;;;4974050;28;20420;-58
2023/05/14 07:13:27;;;;;;;11.50;6.20;;;15.80;99.90;;;;;;4973936;28;20403;-54
2023/05/14 07:15:54;;;;;;;12.70;5.90;;;15.90;99.90;;;;;;4969813;28;20404;-54
2023/05/14 07:18:21;;;;;;;11.73;6.60;;;16.00;99.90;;;;;;4971407;28;21039;-53
2023/05/14 07:20:46;;;;;;;12.52;6.55;;;16.00;99.90;;;;;;4970660;28;20479;-55
2023/05/14 07:23:12;;;;;;;13.07;6.60;;;16.00;99.90;;;;;;4955594;28;20483;-55
2023/05/14 07:25:38;;;;;;;11.88;5.93;;;15.70;99.90;;;;;;4972946;28;20458;-55
2023/05/14 07:28:03;;;;;;;11.83;5.87;;;15.70;99.90;;;;;;4973366;28;20411;-55
2023/05/14 07:30:29;;;;;;;12.80;6.10;;;15.90;99.90;;;;;;4957853;28;20442;-55
2023/05/14 07:32:54;;;;;;;12.95;6.43;;;16.70;99.90;;;;;;4954691;29;20491;-55
2023/05/14 07:35:20;;;;;;;11.50;5.53;;;17.30;99.90;;;;;;4954516;29;20401;-55
2023/05/14 07:37:46;;;;;;;12.63;6.50;;;17.70;25.10;;;;;;4953151;29;21122;-55
2023/05/14 07:40:12;;;;;;;12.18;6.35;;;18.50;1.00;;;;;;4954302;29;20458;-55
2023/05/14 07:42:37;;;;;;;12.10;5.93;;;20.00;1.00;;;;;;4953160;29;20484;-53
2023/05/14 07:45:04;;;;;;;13.40;6.37;;;20.10;1.00;;;;;;4953927;29;20394;-53
2023/05/14 07:47:30;;;;;;;11.40;5.95;;;21.00;1.00;;;;;;4952772;29;20439;-53
2023/05/14 07:49:56;;;;;;;12.38;6.55;;;22.40;1.00;;;;;;4953014;29;20496;-57
2023/05/14 07:52:22;;;;;;;11.18;6.40;;;21.90;1.00;;;;;;4953195;29;20401;-56
2023/05/14 07:54:50;;;;;;;12.23;8.27;;;23.00;1.00;;;;;;4953043;29;20580;-57
2023/05/14 07:57:16;;;;;;;12.65;9.63;;;23.90;1.00;;;;;;4953530;29;20394;-56
2023/05/14 07:59:41;;;;;;;13.32;10.80;;;23.40;99.90;;;;;;4953905;29;20732;-57
2023/05/14 08:02:11;;;;;;;11.43;6.47;;;24.40;1.00;;;;;;4953725;29;20405;-57
2023/05/14 08:04:37;;;;;;;14.88;13.30;;;24.60;99.90;;;;;;4952862;29;20398;-57
2023/05/14 08:07:03;;;;;;;13.75;12.07;;;23.90;99.90;;;;;;4953821;29;20389;-57
2023/05/14 08:09:28;;;;;;;14.40;11.40;;;24.30;99.90;;;;;;4953746;29;20418;-56
2023/05/14 08:11:54;;;;;;;16.20;11.40;;;24.40;99.90;;;;;;4953300;29;20394;-57
2023/05/14 08:14:20;;;;;;;11.80;9.60;;;23.50;99.90;;;;;;4953261;29;20409;-57
2023/05/14 08:16:46;;;;;;;13.33;9.50;;;22.80;99.90;;;;;;4953315;29;20740;-54
2023/05/14 08:19:12;;;;;;;14.70;8.75;;;22.00;99.90;;;;;;4953437;29;20394;-54
2023/05/14 08:21:38;;;;;;;13.03;8.50;;;21.60;99.90;;;;;;4952808;29;20872;-54
2023/05/14 08:24:03;;;;;;;12.57;7.83;;;22.20;99.90;;;;;;4953580;29;20394;-54
2023/05/14 08:26:29;;;;;;;12.68;7.97;;;21.50;99.90;;;;;;4953150;29;20864;-54
2023/05/14 08:28:55;;;;;;;13.10;7.80;;;21.00;99.90;;;;;;4955008;28;20393;-56
2023/05/14 08:31:20;;;;;;;13.40;7.80;;;20.60;99.90;;;;;;4972591;28;20491;-56
2023/05/14 08:33:46;;;;;;;14.67;8.30;;;20.50;99.90;;;;;;4972201;28;20392;-54
2023/05/14 08:36:11;;;;;;;12.60;7.47;;;20.40;99.90;;;;;;4972322;28;20452;-56
2023/05/14 08:38:37;;;;;;;13.40;7.30;;;20.40;99.90;;;;;;4971756;28;20402;-56
2023/05/14 08:41:05;;;;;;;12.93;7.00;;;20.60;99.90;;;;;;4971898;28;20814;-56
2023/05/14 08:43:43;;;;;;;13.07;7.50;;;20.60;99.90;;;;;;4971006;28;20392;-56
2023/05/14 08:46:12;;;;;;;14.35;7.20;;;20.40;99.90;;;;;;4972612;28;20443;-56
2023/05/14 08:48:41;;;;;;;11.65;6.95;;;20.50;99.90;;;;;;4971438;28;20389;-56
2023/05/14 08:51:07;;;;;;;13.00;7.22;;;20.30;99.90;;;;;;4972192;28;20547;-56
2023/05/14 08:53:33;;;;;;;14.73;7.00;;;19.90;99.90;;;;;;4971419;28;20862;-56
2023/05/14 08:56:00;;;;;;;12.40;6.68;;;20.70;99.90;;;;;;4972161;28;20403;-56
2023/05/14 08:58:27;;;;;;;12.20;6.80;;;20.00;99.90;;;;;;4972004;28;20988;-56
2023/05/14 09:00:53;;;;;;;13.07;6.97;;;20.00;99.90;;;;;;4954167;28;20412;-56
2023/05/14 09:03:20;;;;;;;13.38;7.50;;;20.20;99.90;;;;;;4971790;28;20452;-56
2023/05/14 09:05:48;;;;;;;13.40;7.55;;;20.70;99.90;;;;;;4970969;28;20835;-56
2023/05/14 09:08:13;;;;;;;14.52;7.60;;;20.90;99.90;;;;;;4971438;28;20936;-56
2023/05/14 09:10:40;;;;;;;13.80;7.45;;;20.90;99.90;;;;;;4971377;28;20420;-56
2023/05/14 09:13:06;;;;;;;12.98;6.88;;;21.10;99.90;;;;;;4970710;28;20539;-56
2023/05/14 09:15:34;;;;;;;12.63;7.32;;;21.10;99.90;;;;;;4951878;29;20865;-56
2023/05/14 09:17:59;;;;;;;12.27;6.70;;;21.30;99.90;;;;;;4952658;29;20448;-56
2023/05/14 09:20:25;;;;;;;12.95;7.38;;;22.10;99.90;;;;;;4952230;29;20505;-56
2023/05/14 09:22:54;;;;;;;12.90;7.10;;;22.60;99.90;;;;;;4951196;29;20389;-56
2023/05/14 09:25:25;;;;;;;11.60;6.90;;;22.90;99.90;;;;;;4952376;29;20393;-55
2023/05/14 09:27:51;;;;;;;13.73;7.22;;;23.00;99.90;;;;;;4951052;29;20398;-56
2023/05/14 09:30:16;;;;;;;12.80;7.10;;;23.10;99.90;;;;;;4951688;29;20430;-56
2023/05/14 09:32:44;;;;;;;14.37;7.80;;;23.80;99.90;;;;;;4934159;29;20409;-56
2023/05/14 09:35:16;;;;;;;13.00;7.80;;;23.70;99.90;;;;;;4951899;29;20402;-56
2023/05/14 09:37:46;;;;;;;13.07;7.93;;;23.30;99.90;;;;;;4951222;29;20871;-56
2023/05/14 09:40:12;;;;;;;14.77;7.40;;;22.20;99.90;;;;;;4935227;29;20398;-56
2023/05/14 09:42:39;;;;;;;14.23;7.70;;;22.10;99.90;;;;;;4951144;29;20872;-57
2023/05/14 09:45:08;;;;;;;11.95;6.30;;;22.10;99.90;;;;;;4951795;29;20394;-56
2023/05/14 09:47:33;;;;;;;12.50;7.00;;;21.40;99.90;;;;;;4951108;29;20401;-56
2023/05/14 09:49:59;;;;;;;12.83;7.40;;;21.30;99.90;;;;;;4951492;29;20432;-56
2023/05/14 09:52:25;;;;;;;12.55;6.90;;;23.00;99.90;;;;;;4951686;29;20973;-56
2023/05/14 09:54:54;;;;;;;11.23;6.35;;;23.80;99.90;;;;;;4950455;28;20394;-57
2023/05/14 09:57:20;;;;;;;12.70;7.80;;;25.40;99.90;;;;;;4951200;29;20813;-57
2023/05/14 09:59:46;;;;;;;11.70;8.10;;;25.00;99.90;;;;;;4950413;29;20448;-57
2023/05/14 10:02:22;;;;;;;12.40;8.50;;;24.10;99.90;;;;;;4951024;29;20429;-57
2023/05/14 10:04:53;;;;;;;11.20;7.50;;;23.70;99.90;;;;;;4950504;29;20422;-56
2023/05/14 10:07:25;;;;;;;12.48;7.68;;;22.90;99.90;;;;;;4951464;29;20389;-56
2023/05/14 10:10:01;;;;;;;11.82;6.90;;;22.40;99.90;;;;;;4951078;29;20505;-56
2023/05/14 10:12:32;;;;;;;10.63;6.35;;;21.90;99.90;;;;;;4951402;29;20449;-57
2023/05/14 10:15:02;;;;;;;11.73;6.80;;;21.50;99.90;;;;;;4966389;28;20382;-57
2023/05/14 10:17:31;;;;;;;12.52;6.60;;;21.20;99.90;;;;;;4970695;28;20862;-56
2023/05/14 10:19:58;;;;;;;12.45;6.65;;;20.40;99.90;;;;;;4970481;28;20458;-56
2023/05/14 10:22:30;;;;;;;11.55;6.20;;;19.60;99.90;;;;;;4971191;28;20384;-56
2023/05/14 10:24:56;;;;;;;12.57;6.67;;;19.30;99.90;;;;;;4970517;28;20434;-56
2023/05/14 10:27:22;;;;;;;12.50;6.65;;;19.00;99.90;;;;;;4970871;28;20408;-56
2023/05/14 10:29:56;;;;;;;12.68;6.70;;;19.00;99.90;;;;;;4970163;28;20432;-56
2023/05/14 10:32:24;;;;;;;11.82;6.45;;;19.00;99.90;;;;;;4971254;28;20384;-56
2023/05/14 10:34:50;;;;;;;14.77;6.72;;;19.00;99.90;;;;;;4969994;28;20388;-56
2023/05/14 10:37:17;;;;;;;12.88;5.80;;;19.00;99.90;;;;;;4970790;28;20441;-56
2023/05/14 10:39:52;;;;;;;13.82;6.03;;;18.80;99.90;;;;;;4969534;28;20396;-56
2023/05/14 10:42:38;;;;;;;12.90;6.53;;;18.60;99.90;;;;;;4970880;28;20734;-56
2023/05/14 10:45:07;;;;;;;12.63;6.20;;;18.80;99.90;;;;;;4970883;28;20742;-56
2023/05/14 10:47:34;;;;;;;11.68;6.30;;;18.80;99.90;;;;;;4970157;28;20750;-56
2023/05/14 10:50:03;;;;;;;11.07;5.70;;;19.10;99.90;;;;;;4953336;28;21223;-57
2023/05/14 10:52:29;;;;;;;11.50;6.35;;;19.20;99.90;;;;;;4970851;28;20868;-57
2023/05/14 10:55:01;;;;;;;12.40;5.70;;;19.30;99.90;;;;;;4969696;28;20815;-57
2023/05/14 10:57:30;;;;;;;12.63;6.45;;;19.40;99.90;;;;;;4970652;28;20415;-57
2023/05/14 10:59:58;;;;;;;11.80;6.78;;;19.80;99.90;;;;;;4969598;28;20404;-57
2023/05/14 11:02:25;;;;;;;12.43;6.70;;;20.30;99.90;;;;;;4970413;28;20407;-57
2023/05/14 11:04:57;;;;;;;11.15;5.50;;;20.40;99.90;;;;;;4969993;28;20672;-57
2023/05/14 11:07:31;;;;;;;12.68;6.47;;;20.50;99.90;;;;;;4973667;28;20396;-57
2023/05/14 11:10:05;;;;;;;11.25;5.55;;;20.60;99.90;;;;;;4973053;28;20483;-57
2023/05/14 11:12:35;;;;;;;13.87;6.30;;;20.50;99.90;;;;;;4973928;28;20478;-55
2023/05/14 11:15:10;;;;;;;10.85;5.40;;;21.20;99.90;;;;;;4957363;28;20494;-57
2023/05/14 11:17:39;;;;;;;13.35;5.47;;;20.70;99.90;;;;;;4936653;29;20807;-57
2023/05/14 11:20:06;;;;;;;11.20;5.30;;;20.30;99.90;;;;;;4954322;29;20962;-56
2023/05/14 11:22:32;;;;;;;9.83;4.93;;;20.60;99.90;;;;;;4953912;29;20486;-56
2023/05/14 11:24:58;;;;;;;11.43;6.30;;;20.80;99.90;;;;;;4954502;29;20393;-57
2023/05/14 11:27:23;;;;;;;10.87;5.40;;;20.80;99.90;;;;;;4954238;29;20887;-56
2023/05/14 11:29:49;;;;;;;9.35;4.90;;;20.90;99.90;;;;;;4953530;29;20432;-57
2023/05/14 11:32:16;;;;;;;10.73;5.70;;;20.90;99.90;;;;;;4954309;29;20390;-57
2023/05/14 11:34:46;;;;;;;11.73;5.60;;;21.00;99.90;;;;;;4953283;29;20489;-57
2023/05/14 11:37:13;;;;;;;8.60;4.30;;;21.30;99.90;;;;;;4953961;29;20386;-57
2023/05/14 11:39:45;;;;;;;9.10;4.97;;;21.20;99.90;;;;;;4953447;29;20433;-55
2023/05/14 11:42:13;;;;;;;9.43;5.03;;;21.80;99.90;;;;;;4946595;29;20397;-55
2023/05/14 11:44:40;;;;;;;9.53;4.20;;;22.40;99.90;;;;;;4952808;29;20739;-55
2023/05/14 11:47:06;;;;;;;9.60;4.60;;;22.70;99.90;;;;;;4953736;29;20487;-55
2023/05/14 11:49:34;;;;;;;9.68;4.30;;;22.60;99.90;;;;;;4953689;29;20418;-55
2023/05/14 11:52:02;;;;;;;9.32;4.43;;;22.50;99.90;;;;;;4953707;29;20406;-55
2023/05/14 11:54:28;;;;;;;8.38;4.20;;;22.60;99.90;;;;;;4953711;29;20389;-55
2023/05/14 11:56:55;;;;;;;9.32;4.85;;;22.70;99.90;;;;;;4952672;29;20973;-55
2023/05/14 11:59:26;;;;;;;9.18;4.35;;;22.80;99.90;;;;;;4953680;29;20489;-55
2023/05/14 12:01:52;;;;;;;11.32;5.70;;;22.60;99.90;;;;;;4953322;29;20394;-55
2023/05/14 12:04:21;;;;;;;11.55;5.10;;;22.40;99.90;;;;;;4953599;29;20419;-55
2023/05/14 12:06:53;;;;;;;8.70;4.60;;;22.60;99.90;;;;;;4953114;29;20401;-55
2023/05/14 12:09:20;;;;;;;9.07;4.45;;;22.80;99.90;;;;;;4953530;29;20484;-55
2023/05/14 12:11:47;;;;;;;9.65;4.53;;;22.10;99.90;;;;;;4952453;29;20445;-56
2023/05/14 12:14:17;;;;;;;9.50;5.05;;;22.10;99.90;;;;;;4962981;28;20461;-55
2023/05/14 12:16:44;;;;;;;10.52;4.90;;;21.80;99.90;;;;;;4970711;28;20401;-57
2023/05/14 12:19:12;;;;;;;12.18;5.57;;;21.50;99.90;;;;;;4972868;28;20404;-57
2023/05/14 12:21:39;;;;;;;9.35;4.65;;;20.90;99.90;;;;;;4972098;28;20403;-58
2023/05/14 12:24:12;;;;;;;8.82;4.30;;;20.40;99.90;;;;;;4972435;28;20488;-57
2023/05/14 12:26:37;;;;;;;9.50;4.50;;;20.20;99.90;;;;;;4972147;28;20869;-57
2023/05/14 12:29:05;;;;;;;9.00;4.90;;;20.40;99.90;;;;;;4972393;28;20404;-57
2023/05/14 12:31:35;;;;;;;8.80;4.40;;;20.90;99.90;;;;;;4972551;28;20397;-57
2023/05/14 12:34:02;;;;;;;8.75;4.28;;;20.90;99.90;;;;;;4972444;28;20901;-57
2023/05/14 12:36:28;;;;;;;9.43;4.28;;;20.80;99.90;;;;;;4972380;28;20395;-57
2023/05/14 12:39:02;;;;;;;11.17;4.93;;;21.10;99.90;;;;;;4971931;28;20381;-56